sensor_id;sensor_type;location;lat;lon;timestamp;P1;durP1;ratioP1;P2;durP2;ratioP2
43457;SDS011;29046;54.184;18.680;2023-05-01T00:02:51;12.40;;;4.25;;
43457;SDS011;29046;54.184;18.680;2023-05-01T00:05:20;14.73;;;6.20;;
43457;SDS011;29046;54.184;18.680;2023-05-01T00:07:47;13.73;;;4.53;;
43457;SDS011;29046;54.184;18.680;2023-05-01T00:10:15;14.38;;;3.95;;
43457;SDS011;29046;54.184;18.680;2023-05-01T00:12:43;12.52;;;4.80;;
43457;SDS011;29046;54.184;18.680;2023-05-01T00:15:11;19.77;;;4.25;;
43457;SDS011;29046;54.184;18.680;2023-05-01T00:17:38;13.70;;;5.40;;
43457;SDS011;29046;54.184;18.680;2023-05-01T00:20:06;13.80;;;5.80;;
43457;SDS011;29046;54.184;18.680;2023-05-01T00:22:34;13.70;;;5.82;;
43457;SDS011;29046;54.184;18.680;2023-05-01T00:25:01;14.20;;;6.75;;
43457;SDS011;29046;54.184;18.680;2023-05-01T00:27:28;12.90;;;5.32;;
43457;SDS011;29046;54.184;18.680;2023-05-01T00:29:56;14.55;;;6.38;;
43457;SDS011;29046;54.184;18.680;2023-05-01T00:32:24;13.95;;;5.03;;
43457;SDS011;29046;54.184;18.680;2023-05-01T00:34:52;17.08;;;6.88;;
43457;SDS011;29046;54.184;18.680;2023-05-01T00:37:20;13.15;;;5.35;;
43457;SDS011;29046;54.184;18.680;2023-05-01T00:39:47;17.25;;;5.55;;
43457;SDS011;29046;54.184;18.680;2023-05-01T00:42:14;13.82;;;4.45;;
43457;SDS011;29046;54.184;18.680;2023-05-01T00:44:42;11.40;;;4.18;;
43457;SDS011;29046;54.184;18.680;2023-05-01T00:47:09;10.85;;;4.53;;
43457;SDS011;29046;54.184;18.680;2023-05-01T00:49:37;17.50;;;6.63;;
43457;SDS011;29046;54.184;18.680;2023-05-01T00:52:04;14.50;;;6.18;;
43457;SDS011;29046;54.184;18.680;2023-05-01T00:54:32;14.15;;;6.80;;
43457;SDS011;29046;54.184;18.680;2023-05-01T00:56:59;19.40;;;7.93;;
43457;SDS011;29046;54.184;18.680;2023-05-01T00:59:27;21.52;;;8.77;;
43457;SDS011;29046;54.184;18.680;2023-05-01T01:01:54;12.65;;;5.95;;
43457;SDS011;29046;54.184;18.680;2023-05-01T01:04:22;7.82;;;4.80;;
43457;SDS011;29046;54.184;18.680;2023-05-01T01:12:31;11.85;;;4.47;;
43457;SDS011;29046;54.184;18.680;2023-05-01T01:17:44;15.48;;;4.78;;
43457;SDS011;29046;54.184;18.680;2023-05-01T01:23:10;12.52;;;4.20;;
43457;SDS011;29046;54.184;18.680;2023-05-01T01:36:39;12.05;;;3.90;;
43457;SDS011;29046;54.184;18.680;2023-05-01T01:41:38;11.00;;;4.15;;
43457;SDS011;29046;54.184;18.680;2023-05-01T01:44:15;10.50;;;4.03;;
43457;SDS011;29046;54.184;18.680;2023-05-01T01:46:47;8.20;;;4.97;;
43457;SDS011;29046;54.184;18.680;2023-05-01T01:49:19;10.50;;;5.05;;
43457;SDS011;29046;54.184;18.680;2023-05-01T01:51:49;11.18;;;4.97;;
43457;SDS011;29046;54.184;18.680;2023-05-01T01:54:18;10.50;;;4.72;;
43457;SDS011;29046;54.184;18.680;2023-05-01T01:56:48;10.50;;;4.47;;
43457;SDS011;29046;54.184;18.680;2023-05-01T01:59:17;10.45;;;4.45;;
43457;SDS011;29046;54.184;18.680;2023-05-01T02:01:46;12.73;;;4.65;;
43457;SDS011;29046;54.184;18.680;2023-05-01T02:04:15;11.20;;;4.32;;
43457;SDS011;29046;54.184;18.680;2023-05-01T02:06:44;16.75;;;6.43;;
43457;SDS011;29046;54.184;18.680;2023-05-01T02:09:13;17.60;;;5.40;;
43457;SDS011;29046;54.184;18.680;2023-05-01T02:11:43;8.55;;;4.20;;
43457;SDS011;29046;54.184;18.680;2023-05-01T02:14:11;18.70;;;5.68;;
43457;SDS011;29046;54.184;18.680;2023-05-01T02:16:39;19.30;;;6.68;;
43457;SDS011;29046;54.184;18.680;2023-05-01T02:19:08;15.52;;;5.28;;
43457;SDS011;29046;54.184;18.680;2023-05-01T02:21:35;14.55;;;6.03;;
43457;SDS011;29046;54.184;18.680;2023-05-01T02:24:03;11.88;;;5.30;;
43457;SDS011;29046;54.184;18.680;2023-05-01T02:26:33;9.30;;;4.45;;
43457;SDS011;29046;54.184;18.680;2023-05-01T02:29:07;10.38;;;4.57;;
43457;SDS011;29046;54.184;18.680;2023-05-01T02:31:36;12.25;;;4.85;;
43457;SDS011;29046;54.184;18.680;2023-05-01T02:34:04;13.48;;;4.22;;
43457;SDS011;29046;54.184;18.680;2023-05-01T02:36:32;9.60;;;3.80;;
43457;SDS011;29046;54.184;18.680;2023-05-01T02:38:59;10.07;;;4.03;;
43457;SDS011;29046;54.184;18.680;2023-05-01T02:41:27;15.50;;;5.43;;
43457;SDS011;29046;54.184;18.680;2023-05-01T02:43:57;13.32;;;4.93;;
43457;SDS011;29046;54.184;18.680;2023-05-01T02:46:26;15.48;;;4.90;;
43457;SDS011;29046;54.184;18.680;2023-05-01T02:48:54;9.48;;;4.78;;
43457;SDS011;29046;54.184;18.680;2023-05-01T02:51:23;14.27;;;6.18;;
43457;SDS011;29046;54.184;18.680;2023-05-01T02:53:50;13.25;;;5.72;;
43457;SDS011;29046;54.184;18.680;2023-05-01T02:56:19;11.05;;;4.90;;
43457;SDS011;29046;54.184;18.680;2023-05-01T02:58:47;11.48;;;5.13;;
43457;SDS011;29046;54.184;18.680;2023-05-01T03:01:15;11.52;;;4.50;;
43457;SDS011;29046;54.184;18.680;2023-05-01T03:03:43;11.18;;;4.47;;
43457;SDS011;29046;54.184;18.680;2023-05-01T03:06:10;13.65;;;5.80;;
43457;SDS011;29046;54.184;18.680;2023-05-01T03:08:39;11.18;;;5.25;;
43457;SDS011;29046;54.184;18.680;2023-05-01T03:11:07;9.00;;;4.93;;
43457;SDS011;29046;54.184;18.680;2023-05-01T03:13:35;20.65;;;5.32;;
43457;SDS011;29046;54.184;18.680;2023-05-01T03:16:02;10.60;;;4.75;;
43457;SDS011;29046;54.184;18.680;2023-05-01T03:18:30;17.85;;;6.10;;
43457;SDS011;29046;54.184;18.680;2023-05-01T03:20:57;12.82;;;5.03;;
43457;SDS011;29046;54.184;18.680;2023-05-01T03:23:25;11.82;;;5.45;;
43457;SDS011;29046;54.184;18.680;2023-05-01T03:25:53;17.08;;;4.97;;
43457;SDS011;29046;54.184;18.680;2023-05-01T03:28:20;14.88;;;5.45;;
43457;SDS011;29046;54.184;18.680;2023-05-01T03:30:49;13.18;;;5.72;;
43457;SDS011;29046;54.184;18.680;2023-05-01T03:33:19;15.07;;;6.28;;
43457;SDS011;29046;54.184;18.680;2023-05-01T03:35:47;14.05;;;6.05;;
43457;SDS011;29046;54.184;18.680;2023-05-01T03:38:14;27.45;;;7.32;;
43457;SDS011;29046;54.184;18.680;2023-05-01T03:40:42;22.13;;;6.55;;
43457;SDS011;29046;54.184;18.680;2023-05-01T03:43:09;19.15;;;6.95;;
43457;SDS011;29046;54.184;18.680;2023-05-01T03:45:37;18.92;;;6.97;;
43457;SDS011;29046;54.184;18.680;2023-05-01T03:48:05;19.08;;;7.45;;
43457;SDS011;29046;54.184;18.680;2023-05-01T03:50:33;12.52;;;6.30;;
43457;SDS011;29046;54.184;18.680;2023-05-01T03:53:00;16.42;;;6.70;;
43457;SDS011;29046;54.184;18.680;2023-05-01T03:55:27;11.48;;;6.18;;
43457;SDS011;29046;54.184;18.680;2023-05-01T03:57:55;13.05;;;6.43;;
43457;SDS011;29046;54.184;18.680;2023-05-01T04:00:23;12.10;;;5.57;;
43457;SDS011;29046;54.184;18.680;2023-05-01T04:02:50;9.60;;;4.78;;
43457;SDS011;29046;54.184;18.680;2023-05-01T04:05:18;12.65;;;5.65;;
43457;SDS011;29046;54.184;18.680;2023-05-01T04:07:46;14.15;;;5.15;;
43457;SDS011;29046;54.184;18.680;2023-05-01T04:10:14;9.00;;;4.80;;
43457;SDS011;29046;54.184;18.680;2023-05-01T04:12:42;10.60;;;4.95;;
43457;SDS011;29046;54.184;18.680;2023-05-01T04:15:10;16.10;;;5.57;;
43457;SDS011;29046;54.184;18.680;2023-05-01T04:17:40;11.57;;;5.05;;
43457;SDS011;29046;54.184;18.680;2023-05-01T04:20:09;9.38;;;4.60;;
43457;SDS011;29046;54.184;18.680;2023-05-01T04:22:37;12.63;;;4.55;;
43457;SDS011;29046;54.184;18.680;2023-05-01T04:25:05;10.38;;;3.92;;
43457;SDS011;29046;54.184;18.680;2023-05-01T04:27:33;12.45;;;4.47;;
43457;SDS011;29046;54.184;18.680;2023-05-01T04:30:02;7.25;;;3.83;;
43457;SDS011;29046;54.184;18.680;2023-05-01T04:32:30;9.07;;;3.80;;
43457;SDS011;29046;54.184;18.680;2023-05-01T04:34:57;7.25;;;3.55;;
43457;SDS011;29046;54.184;18.680;2023-05-01T04:37:25;17.58;;;3.83;;
43457;SDS011;29046;54.184;18.680;2023-05-01T04:39:52;11.82;;;3.95;;
43457;SDS011;29046;54.184;18.680;2023-05-01T04:42:21;8.13;;;3.67;;
43457;SDS011;29046;54.184;18.680;2023-05-01T04:44:48;10.43;;;3.40;;
43457;SDS011;29046;54.184;18.680;2023-05-01T04:47:16;14.65;;;5.30;;
43457;SDS011;29046;54.184;18.680;2023-05-01T04:49:44;16.02;;;4.93;;
43457;SDS011;29046;54.184;18.680;2023-05-01T04:52:11;14.02;;;4.60;;
43457;SDS011;29046;54.184;18.680;2023-05-01T04:54:39;19.65;;;7.00;;
43457;SDS011;29046;54.184;18.680;2023-05-01T04:57:06;23.83;;;8.57;;
43457;SDS011;29046;54.184;18.680;2023-05-01T04:59:34;18.02;;;7.00;;
43457;SDS011;29046;54.184;18.680;2023-05-01T05:02:01;20.95;;;8.30;;
43457;SDS011;29046;54.184;18.680;2023-05-01T05:04:29;17.38;;;6.00;;
43457;SDS011;29046;54.184;18.680;2023-05-01T05:06:57;16.23;;;6.60;;
43457;SDS011;29046;54.184;18.680;2023-05-01T05:09:25;10.95;;;5.50;;
43457;SDS011;29046;54.184;18.680;2023-05-01T05:11:52;14.52;;;4.82;;
43457;SDS011;29046;54.184;18.680;2023-05-01T05:14:20;11.73;;;4.95;;
43457;SDS011;29046;54.184;18.680;2023-05-01T05:16:47;11.48;;;5.07;;
43457;SDS011;29046;54.184;18.680;2023-05-01T05:19:15;12.02;;;4.82;;
43457;SDS011;29046;54.184;18.680;2023-05-01T05:21:42;13.45;;;4.30;;
43457;SDS011;29046;54.184;18.680;2023-05-01T05:24:10;9.15;;;4.05;;
43457;SDS011;29046;54.184;18.680;2023-05-01T05:26:37;7.03;;;3.75;;
43457;SDS011;29046;54.184;18.680;2023-05-01T05:29:05;14.15;;;4.13;;
43457;SDS011;29046;54.184;18.680;2023-05-01T05:31:32;7.93;;;3.53;;
43457;SDS011;29046;54.184;18.680;2023-05-01T05:34:00;8.90;;;3.20;;
43457;SDS011;29046;54.184;18.680;2023-05-01T05:36:28;8.57;;;3.22;;
43457;SDS011;29046;54.184;18.680;2023-05-01T05:38:57;9.23;;;3.58;;
43457;SDS011;29046;54.184;18.680;2023-05-01T05:41:25;5.05;;;3.20;;
43457;SDS011;29046;54.184;18.680;2023-05-01T05:43:52;12.43;;;3.35;;
43457;SDS011;29046;54.184;18.680;2023-05-01T05:46:20;7.38;;;3.35;;
43457;SDS011;29046;54.184;18.680;2023-05-01T05:48:48;6.38;;;2.95;;
43457;SDS011;29046;54.184;18.680;2023-05-01T05:51:15;7.75;;;3.05;;
43457;SDS011;29046;54.184;18.680;2023-05-01T05:53:43;10.70;;;3.53;;
43457;SDS011;29046;54.184;18.680;2023-05-01T05:56:10;5.43;;;3.05;;
43457;SDS011;29046;54.184;18.680;2023-05-01T05:58:38;6.68;;;3.25;;
43457;SDS011;29046;54.184;18.680;2023-05-01T06:01:05;6.88;;;2.78;;
43457;SDS011;29046;54.184;18.680;2023-05-01T06:03:34;10.75;;;3.45;;
43457;SDS011;29046;54.184;18.680;2023-05-01T06:06:02;6.18;;;2.67;;
43457;SDS011;29046;54.184;18.680;2023-05-01T06:08:30;8.73;;;3.42;;
43457;SDS011;29046;54.184;18.680;2023-05-01T06:10:58;9.35;;;3.20;;
43457;SDS011;29046;54.184;18.680;2023-05-01T06:13:25;9.10;;;3.42;;
43457;SDS011;29046;54.184;18.680;2023-05-01T06:15:53;9.77;;;3.08;;
43457;SDS011;29046;54.184;18.680;2023-05-01T06:18:20;6.63;;;2.80;;
43457;SDS011;29046;54.184;18.680;2023-05-01T06:20:48;6.50;;;2.88;;
43457;SDS011;29046;54.184;18.680;2023-05-01T06:23:16;6.45;;;2.72;;
43457;SDS011;29046;54.184;18.680;2023-05-01T06:25:44;6.15;;;3.00;;
43457;SDS011;29046;54.184;18.680;2023-05-01T06:28:12;6.20;;;2.65;;
43457;SDS011;29046;54.184;18.680;2023-05-01T06:30:39;8.82;;;3.00;;
43457;SDS011;29046;54.184;18.680;2023-05-01T06:33:07;11.90;;;3.00;;
43457;SDS011;29046;54.184;18.680;2023-05-01T06:35:37;12.05;;;2.83;;
43457;SDS011;29046;54.184;18.680;2023-05-01T06:38:05;4.68;;;2.60;;
43457;SDS011;29046;54.184;18.680;2023-05-01T06:40:32;7.20;;;2.72;;
43457;SDS011;29046;54.184;18.680;2023-05-01T06:43:01;10.32;;;2.00;;
43457;SDS011;29046;54.184;18.680;2023-05-01T06:45:28;5.30;;;2.75;;
43457;SDS011;29046;54.184;18.680;2023-05-01T06:47:56;7.30;;;3.15;;
43457;SDS011;29046;54.184;18.680;2023-05-01T06:50:24;9.43;;;2.38;;
43457;SDS011;29046;54.184;18.680;2023-05-01T06:52:51;5.07;;;1.77;;
43457;SDS011;29046;54.184;18.680;2023-05-01T06:55:19;5.68;;;2.25;;
43457;SDS011;29046;54.184;18.680;2023-05-01T06:57:46;10.23;;;3.03;;
43457;SDS011;29046;54.184;18.680;2023-05-01T07:00:14;6.47;;;2.50;;
43457;SDS011;29046;54.184;18.680;2023-05-01T07:02:43;9.82;;;2.47;;
43457;SDS011;29046;54.184;18.680;2023-05-01T07:05:12;5.25;;;2.08;;
43457;SDS011;29046;54.184;18.680;2023-05-01T07:07:39;7.82;;;2.03;;
43457;SDS011;29046;54.184;18.680;2023-05-01T07:10:16;7.22;;;2.10;;
43457;SDS011;29046;54.184;18.680;2023-05-01T07:12:43;10.02;;;2.80;;
43457;SDS011;29046;54.184;18.680;2023-05-01T07:15:11;6.10;;;2.15;;
43457;SDS011;29046;54.184;18.680;2023-05-01T07:17:42;10.75;;;2.55;;
43457;SDS011;29046;54.184;18.680;2023-05-01T07:20:10;10.05;;;2.45;;
43457;SDS011;29046;54.184;18.680;2023-05-01T07:22:39;11.75;;;2.88;;
43457;SDS011;29046;54.184;18.680;2023-05-01T07:25:06;7.65;;;2.10;;
43457;SDS011;29046;54.184;18.680;2023-05-01T07:27:34;4.82;;;2.60;;
43457;SDS011;29046;54.184;18.680;2023-05-01T07:30:01;6.50;;;2.33;;
43457;SDS011;29046;54.184;18.680;2023-05-01T07:32:30;8.55;;;3.00;;
43457;SDS011;29046;54.184;18.680;2023-05-01T07:34:58;7.13;;;2.70;;
43457;SDS011;29046;54.184;18.680;2023-05-01T07:37:26;6.82;;;2.28;;
43457;SDS011;29046;54.184;18.680;2023-05-01T07:39:54;6.45;;;2.45;;
43457;SDS011;29046;54.184;18.680;2023-05-01T07:42:27;5.55;;;2.47;;
43457;SDS011;29046;54.184;18.680;2023-05-01T07:44:54;5.75;;;2.30;;
43457;SDS011;29046;54.184;18.680;2023-05-01T07:47:22;1.75;;;1.08;;
43457;SDS011;29046;54.184;18.680;2023-05-01T07:49:49;3.38;;;1.85;;
43457;SDS011;29046;54.184;18.680;2023-05-01T07:52:17;5.13;;;2.70;;
43457;SDS011;29046;54.184;18.680;2023-05-01T07:54:48;9.60;;;2.85;;
43457;SDS011;29046;54.184;18.680;2023-05-01T07:57:18;5.18;;;2.33;;
43457;SDS011;29046;54.184;18.680;2023-05-01T07:59:45;10.60;;;3.00;;
43457;SDS011;29046;54.184;18.680;2023-05-01T08:02:15;6.57;;;3.15;;
43457;SDS011;29046;54.184;18.680;2023-05-01T08:04:43;3.08;;;1.75;;
43457;SDS011;29046;54.184;18.680;2023-05-01T08:07:11;10.43;;;3.30;;
43457;SDS011;29046;54.184;18.680;2023-05-01T08:09:39;9.23;;;3.65;;
43457;SDS011;29046;54.184;18.680;2023-05-01T08:12:06;9.52;;;2.60;;
43457;SDS011;29046;54.184;18.680;2023-05-01T08:14:34;7.20;;;3.42;;
43457;SDS011;29046;54.184;18.680;2023-05-01T08:17:01;9.07;;;2.97;;
43457;SDS011;29046;54.184;18.680;2023-05-01T08:19:29;8.55;;;3.17;;
43457;SDS011;29046;54.184;18.680;2023-05-01T08:21:56;9.73;;;2.97;;
43457;SDS011;29046;54.184;18.680;2023-05-01T08:24:24;6.38;;;3.03;;
43457;SDS011;29046;54.184;18.680;2023-05-01T08:26:51;8.13;;;2.45;;
43457;SDS011;29046;54.184;18.680;2023-05-01T08:29:19;6.97;;;2.90;;
43457;SDS011;29046;54.184;18.680;2023-05-01T08:31:46;10.43;;;2.55;;
43457;SDS011;29046;54.184;18.680;2023-05-01T08:34:14;5.25;;;2.45;;
43457;SDS011;29046;54.184;18.680;2023-05-01T08:36:42;5.82;;;2.55;;
43457;SDS011;29046;54.184;18.680;2023-05-01T08:39:10;5.68;;;2.17;;
43457;SDS011;29046;54.184;18.680;2023-05-01T08:41:38;3.65;;;2.20;;
43457;SDS011;29046;54.184;18.680;2023-05-01T08:44:06;5.25;;;2.42;;
43457;SDS011;29046;54.184;18.680;2023-05-01T08:46:52;7.45;;;2.60;;
43457;SDS011;29046;54.184;18.680;2023-05-01T08:49:25;6.68;;;2.28;;
43457;SDS011;29046;54.184;18.680;2023-05-01T08:51:53;6.97;;;2.47;;
43457;SDS011;29046;54.184;18.680;2023-05-01T08:54:22;7.45;;;2.72;;
43457;SDS011;29046;54.184;18.680;2023-05-01T08:56:50;6.20;;;2.85;;
43457;SDS011;29046;54.184;18.680;2023-05-01T08:59:19;5.40;;;2.22;;
43457;SDS011;29046;54.184;18.680;2023-05-01T09:01:48;6.65;;;2.20;;
43457;SDS011;29046;54.184;18.680;2023-05-01T09:04:17;7.32;;;2.47;;
43457;SDS011;29046;54.184;18.680;2023-05-01T09:06:45;9.48;;;2.95;;
43457;SDS011;29046;54.184;18.680;2023-05-01T09:09:12;5.47;;;2.25;;
43457;SDS011;29046;54.184;18.680;2023-05-01T09:11:42;4.68;;;2.40;;
43457;SDS011;29046;54.184;18.680;2023-05-01T09:14:10;6.18;;;2.08;;
43457;SDS011;29046;54.184;18.680;2023-05-01T09:16:37;6.68;;;2.10;;
43457;SDS011;29046;54.184;18.680;2023-05-01T09:19:05;5.97;;;2.10;;
43457;SDS011;29046;54.184;18.680;2023-05-01T09:21:32;6.28;;;2.20;;
43457;SDS011;29046;54.184;18.680;2023-05-01T09:24:00;5.80;;;2.28;;
43457;SDS011;29046;54.184;18.680;2023-05-01T09:26:28;7.80;;;2.28;;
43457;SDS011;29046;54.184;18.680;2023-05-01T09:28:55;9.05;;;1.90;;
43457;SDS011;29046;54.184;18.680;2023-05-01T09:31:25;7.78;;;2.40;;
43457;SDS011;29046;54.184;18.680;2023-05-01T09:33:56;6.25;;;2.28;;
43457;SDS011;29046;54.184;18.680;2023-05-01T09:36:25;6.93;;;2.20;;
43457;SDS011;29046;54.184;18.680;2023-05-01T09:38:53;8.68;;;2.45;;
43457;SDS011;29046;54.184;18.680;2023-05-01T09:41:21;4.40;;;1.90;;
43457;SDS011;29046;54.184;18.680;2023-05-01T09:43:49;5.07;;;1.98;;
43457;SDS011;29046;54.184;18.680;2023-05-01T09:46:17;5.97;;;2.40;;
43457;SDS011;29046;54.184;18.680;2023-05-01T09:48:54;5.63;;;2.58;;
43457;SDS011;29046;54.184;18.680;2023-05-01T09:51:29;5.57;;;2.20;;
43457;SDS011;29046;54.184;18.680;2023-05-01T09:53:57;5.60;;;2.25;;
43457;SDS011;29046;54.184;18.680;2023-05-01T09:56:25;5.78;;;2.70;;
43457;SDS011;29046;54.184;18.680;2023-05-01T09:58:53;5.45;;;2.35;;
43457;SDS011;29046;54.184;18.680;2023-05-01T10:01:37;4.32;;;1.90;;
43457;SDS011;29046;54.184;18.680;2023-05-01T10:04:05;6.97;;;2.10;;
43457;SDS011;29046;54.184;18.680;2023-05-01T10:06:34;5.43;;;2.17;;
43457;SDS011;29046;54.184;18.680;2023-05-01T10:09:04;6.82;;;2.20;;
43457;SDS011;29046;54.184;18.680;2023-05-01T10:11:49;5.03;;;2.35;;
43457;SDS011;29046;54.184;18.680;2023-05-01T10:14:21;8.15;;;2.45;;
43457;SDS011;29046;54.184;18.680;2023-05-01T10:16:50;5.90;;;2.42;;
43457;SDS011;29046;54.184;18.680;2023-05-01T10:19:18;6.00;;;2.75;;
43457;SDS011;29046;54.184;18.680;2023-05-01T10:21:47;6.40;;;2.45;;
43457;SDS011;29046;54.184;18.680;2023-05-01T10:24:14;5.45;;;2.42;;
43457;SDS011;29046;54.184;18.680;2023-05-01T10:26:43;5.72;;;2.60;;
43457;SDS011;29046;54.184;18.680;2023-05-01T10:29:11;3.63;;;2.00;;
43457;SDS011;29046;54.184;18.680;2023-05-01T10:31:38;4.90;;;2.17;;
43457;SDS011;29046;54.184;18.680;2023-05-01T10:34:08;5.25;;;2.00;;
43457;SDS011;29046;54.184;18.680;2023-05-01T10:36:43;6.82;;;2.45;;
43457;SDS011;29046;54.184;18.680;2023-05-01T10:39:28;6.63;;;2.50;;
43457;SDS011;29046;54.184;18.680;2023-05-01T10:44:24;6.13;;;2.40;;
43457;SDS011;29046;54.184;18.680;2023-05-01T10:46:53;6.43;;;2.30;;
43457;SDS011;29046;54.184;18.680;2023-05-01T10:49:21;5.80;;;2.60;;
43457;SDS011;29046;54.184;18.680;2023-05-01T10:54:34;3.38;;;2.22;;
43457;SDS011;29046;54.184;18.680;2023-05-01T10:57:02;8.52;;;2.33;;
43457;SDS011;29046;54.184;18.680;2023-05-01T11:00:09;3.60;;;2.13;;
43457;SDS011;29046;54.184;18.680;2023-05-01T11:02:21;5.75;;;2.22;;
43457;SDS011;29046;54.184;18.680;2023-05-01T11:04:49;8.10;;;2.25;;
43457;SDS011;29046;54.184;18.680;2023-05-01T11:07:20;5.07;;;2.03;;
43457;SDS011;29046;54.184;18.680;2023-05-01T11:09:54;3.72;;;1.88;;
43457;SDS011;29046;54.184;18.680;2023-05-01T11:15:25;5.45;;;2.00;;
43457;SDS011;29046;54.184;18.680;2023-05-01T11:17:54;4.65;;;2.53;;
43457;SDS011;29046;54.184;18.680;2023-05-01T11:22:55;5.07;;;2.05;;
43457;SDS011;29046;54.184;18.680;2023-05-01T11:25:23;8.20;;;2.30;;
43457;SDS011;29046;54.184;18.680;2023-05-01T11:27:53;6.50;;;2.40;;
43457;SDS011;29046;54.184;18.680;2023-05-01T11:30:21;5.55;;;2.03;;
43457;SDS011;29046;54.184;18.680;2023-05-01T11:32:49;6.32;;;2.20;;
43457;SDS011;29046;54.184;18.680;2023-05-01T11:35:18;6.15;;;3.17;;
43457;SDS011;29046;54.184;18.680;2023-05-01T11:37:46;6.55;;;2.22;;
43457;SDS011;29046;54.184;18.680;2023-05-01T11:40:17;4.70;;;2.10;;
43457;SDS011;29046;54.184;18.680;2023-05-01T11:42:47;4.00;;;1.90;;
43457;SDS011;29046;54.184;18.680;2023-05-01T11:45:14;5.63;;;2.33;;
43457;SDS011;29046;54.184;18.680;2023-05-01T11:47:42;8.55;;;2.08;;
43457;SDS011;29046;54.184;18.680;2023-05-01T11:50:09;8.25;;;2.35;;
43457;SDS011;29046;54.184;18.680;2023-05-01T11:52:42;3.88;;;2.60;;
43457;SDS011;29046;54.184;18.680;2023-05-01T11:55:09;6.90;;;2.90;;
43457;SDS011;29046;54.184;18.680;2023-05-01T11:57:50;4.72;;;2.55;;
43457;SDS011;29046;54.184;18.680;2023-05-01T12:03:00;10.32;;;2.67;;
43457;SDS011;29046;54.184;18.680;2023-05-01T12:05:29;7.43;;;2.85;;
43457;SDS011;29046;54.184;18.680;2023-05-01T12:08:14;5.00;;;2.50;;
43457;SDS011;29046;54.184;18.680;2023-05-01T12:10:45;4.15;;;2.17;;
43457;SDS011;29046;54.184;18.680;2023-05-01T12:13:13;5.97;;;3.15;;
43457;SDS011;29046;54.184;18.680;2023-05-01T12:15:43;6.80;;;2.47;;
43457;SDS011;29046;54.184;18.680;2023-05-01T12:18:11;6.22;;;3.08;;
43457;SDS011;29046;54.184;18.680;2023-05-01T12:20:41;5.93;;;2.83;;
43457;SDS011;29046;54.184;18.680;2023-05-01T12:23:12;5.05;;;2.30;;
43457;SDS011;29046;54.184;18.680;2023-05-01T12:25:42;5.55;;;2.10;;
43457;SDS011;29046;54.184;18.680;2023-05-01T12:28:11;4.82;;;2.25;;
43457;SDS011;29046;54.184;18.680;2023-05-01T12:30:40;7.80;;;2.65;;
43457;SDS011;29046;54.184;18.680;2023-05-01T12:33:09;5.28;;;2.60;;
43457;SDS011;29046;54.184;18.680;2023-05-01T12:35:37;6.63;;;2.83;;
43457;SDS011;29046;54.184;18.680;2023-05-01T12:38:08;6.68;;;2.65;;
43457;SDS011;29046;54.184;18.680;2023-05-01T12:40:38;5.63;;;2.40;;
43457;SDS011;29046;54.184;18.680;2023-05-01T12:43:06;4.35;;;2.38;;
43457;SDS011;29046;54.184;18.680;2023-05-01T12:45:39;10.32;;;2.92;;
43457;SDS011;29046;54.184;18.680;2023-05-01T12:48:11;9.48;;;3.20;;
43457;SDS011;29046;54.184;18.680;2023-05-01T12:50:40;7.67;;;2.83;;
43457;SDS011;29046;54.184;18.680;2023-05-01T12:53:08;6.43;;;2.53;;
43457;SDS011;29046;54.184;18.680;2023-05-01T12:55:44;6.35;;;2.55;;
43457;SDS011;29046;54.184;18.680;2023-05-01T12:58:12;3.70;;;2.08;;
43457;SDS011;29046;54.184;18.680;2023-05-01T13:00:41;4.38;;;2.03;;
43457;SDS011;29046;54.184;18.680;2023-05-01T13:03:09;5.85;;;2.45;;
43457;SDS011;29046;54.184;18.680;2023-05-01T13:05:36;6.38;;;2.47;;
43457;SDS011;29046;54.184;18.680;2023-05-01T13:08:21;3.42;;;2.17;;
43457;SDS011;29046;54.184;18.680;2023-05-01T13:10:48;7.05;;;2.47;;
43457;SDS011;29046;54.184;18.680;2023-05-01T13:13:22;4.53;;;2.25;;
43457;SDS011;29046;54.184;18.680;2023-05-01T13:15:50;5.05;;;2.47;;
43457;SDS011;29046;54.184;18.680;2023-05-01T13:18:18;4.03;;;2.22;;
43457;SDS011;29046;54.184;18.680;2023-05-01T13:20:45;5.20;;;1.90;;
43457;SDS011;29046;54.184;18.680;2023-05-01T13:23:13;6.50;;;2.65;;
43457;SDS011;29046;54.184;18.680;2023-05-01T13:25:40;4.78;;;2.38;;
43457;SDS011;29046;54.184;18.680;2023-05-01T13:28:08;5.28;;;2.50;;
43457;SDS011;29046;54.184;18.680;2023-05-01T13:30:36;4.35;;;2.53;;
43457;SDS011;29046;54.184;18.680;2023-05-01T13:33:05;4.30;;;2.38;;
43457;SDS011;29046;54.184;18.680;2023-05-01T13:35:33;6.15;;;2.33;;
43457;SDS011;29046;54.184;18.680;2023-05-01T13:38:01;6.82;;;2.78;;
43457;SDS011;29046;54.184;18.680;2023-05-01T13:40:30;5.35;;;2.72;;
43457;SDS011;29046;54.184;18.680;2023-05-01T13:43:00;10.32;;;3.03;;
43457;SDS011;29046;54.184;18.680;2023-05-01T13:45:27;5.80;;;2.42;;
43457;SDS011;29046;54.184;18.680;2023-05-01T13:47:55;7.70;;;3.40;;
43457;SDS011;29046;54.184;18.680;2023-05-01T13:50:22;4.60;;;2.60;;
43457;SDS011;29046;54.184;18.680;2023-05-01T13:52:50;5.93;;;2.72;;
43457;SDS011;29046;54.184;18.680;2023-05-01T13:55:17;7.28;;;2.80;;
43457;SDS011;29046;54.184;18.680;2023-05-01T13:57:46;6.63;;;3.00;;
43457;SDS011;29046;54.184;18.680;2023-05-01T14:00:15;3.85;;;2.45;;
43457;SDS011;29046;54.184;18.680;2023-05-01T14:02:45;5.43;;;2.67;;
43457;SDS011;29046;54.184;18.680;2023-05-01T14:05:14;5.47;;;3.20;;
43457;SDS011;29046;54.184;18.680;2023-05-01T14:07:49;4.78;;;2.53;;
43457;SDS011;29046;54.184;18.680;2023-05-01T14:10:20;5.75;;;2.70;;
43457;SDS011;29046;54.184;18.680;2023-05-01T14:12:48;4.25;;;2.58;;
43457;SDS011;29046;54.184;18.680;2023-05-01T14:15:16;4.68;;;2.63;;
43457;SDS011;29046;54.184;18.680;2023-05-01T14:17:43;10.30;;;3.00;;
43457;SDS011;29046;54.184;18.680;2023-05-01T14:20:11;7.53;;;2.55;;
43457;SDS011;29046;54.184;18.680;2023-05-01T14:25:31;5.90;;;3.78;;
43457;SDS011;29046;54.184;18.680;2023-05-01T14:28:03;5.40;;;3.05;;
43457;SDS011;29046;54.184;18.680;2023-05-01T14:30:31;9.10;;;4.70;;
43457;SDS011;29046;54.184;18.680;2023-05-01T14:33:02;4.35;;;2.80;;
43457;SDS011;29046;54.184;18.680;2023-05-01T14:35:30;6.47;;;2.75;;
43457;SDS011;29046;54.184;18.680;2023-05-01T14:37:59;6.43;;;2.63;;
43457;SDS011;29046;54.184;18.680;2023-05-01T14:40:30;6.88;;;3.00;;
43457;SDS011;29046;54.184;18.680;2023-05-01T14:42:57;5.72;;;3.20;;
43457;SDS011;29046;54.184;18.680;2023-05-01T14:45:25;9.20;;;4.03;;
43457;SDS011;29046;54.184;18.680;2023-05-01T14:47:52;4.38;;;2.70;;
43457;SDS011;29046;54.184;18.680;2023-05-01T14:50:23;10.48;;;2.67;;
43457;SDS011;29046;54.184;18.680;2023-05-01T14:52:54;6.53;;;3.08;;
43457;SDS011;29046;54.184;18.680;2023-05-01T14:55:27;4.35;;;2.67;;
43457;SDS011;29046;54.184;18.680;2023-05-01T14:57:55;4.63;;;2.78;;
43457;SDS011;29046;54.184;18.680;2023-05-01T15:00:23;6.72;;;3.45;;
43457;SDS011;29046;54.184;18.680;2023-05-01T15:02:50;7.57;;;3.65;;
43457;SDS011;29046;54.184;18.680;2023-05-01T15:05:18;6.05;;;3.38;;
43457;SDS011;29046;54.184;18.680;2023-05-01T15:07:46;10.23;;;3.72;;
43457;SDS011;29046;54.184;18.680;2023-05-01T15:10:13;5.60;;;2.97;;
43457;SDS011;29046;54.184;18.680;2023-05-01T15:12:41;14.32;;;3.20;;
43457;SDS011;29046;54.184;18.680;2023-05-01T15:15:08;6.60;;;3.17;;
43457;SDS011;29046;54.184;18.680;2023-05-01T15:17:36;6.55;;;3.30;;
43457;SDS011;29046;54.184;18.680;2023-05-01T15:20:04;6.55;;;3.20;;
43457;SDS011;29046;54.184;18.680;2023-05-01T15:22:32;7.35;;;3.30;;